Elk Park, North Carolina
Current Conditions -  °F | °C
As of 9:15 PM on Sunday 25 Jan 2015 (Local Time) from K0A9 Reporting Station
Drizzle Drizzle  
Wind Chill: 39°   Ceiling: 6500
Heat Index: 39°   Visibility: 10mi
Dew Point: 36°   Wind: 0mph
Humidity: 87%   Direction: NA
Pressure: 29.73"   Gusts: NA
Location:  36.16°N, 81.98°W
Report Text: K0A9 260215Z AUTO 00000KT 10SM -DZ FEW040 SCT046 BKN065 04/02 A2973 RMK
Loading
Personal Weather Stations






























Interactive Weather Map New forecast layout! Learn more

10-Day Weather Forecast

Advertisements
Track Severe Weather on mobile